sensor_id;sensor_type;location;lat;lon;timestamp;P1;durP1;ratioP1;P2;durP2;ratioP2
72161;SDS011;60047;51.644;5.842;2022-12-18T00:02:39;10.3;;;6.7;;
72161;SDS011;60047;51.644;5.842;2022-12-18T00:07:40;8.4;;;6.4;;
72161;SDS011;60047;51.644;5.842;2022-12-18T00:12:40;9.1;;;6.9;;
72161;SDS011;60047;51.644;5.842;2022-12-18T00:17:39;9.6;;;6.6;;
72161;SDS011;60047;51.644;5.842;2022-12-18T00:22:39;9.5;;;6.8;;
72161;SDS011;60047;51.644;5.842;2022-12-18T00:27:39;8.7;;;6.3;;
72161;SDS011;60047;51.644;5.842;2022-12-18T00:32:39;10.7;;;7.2;;
72161;SDS011;60047;51.644;5.842;2022-12-18T00:37:40;9.7;;;6.7;;
72161;SDS011;60047;51.644;5.842;2022-12-18T00:42:40;9.7;;;7.1;;
72161;SDS011;60047;51.644;5.842;2022-12-18T00:47:40;9.2;;;6.9;;
72161;SDS011;60047;51.644;5.842;2022-12-18T00:52:40;9.7;;;7.0;;
72161;SDS011;60047;51.644;5.842;2022-12-18T00:57:40;9.9;;;7.2;;
72161;SDS011;60047;51.644;5.842;2022-12-18T01:02:40;9.1;;;7.0;;
72161;SDS011;60047;51.644;5.842;2022-12-18T01:07:40;10.0;;;6.8;;
72161;SDS011;60047;51.644;5.842;2022-12-18T01:12:40;10.2;;;7.5;;
72161;SDS011;60047;51.644;5.842;2022-12-18T01:17:40;9.3;;;6.7;;
72161;SDS011;60047;51.644;5.842;2022-12-18T01:22:40;9.4;;;7.1;;
72161;SDS011;60047;51.644;5.842;2022-12-18T01:27:40;11.5;;;7.5;;
72161;SDS011;60047;51.644;5.842;2022-12-18T01:32:40;9.2;;;6.8;;
72161;SDS011;60047;51.644;5.842;2022-12-18T01:37:40;11.2;;;7.6;;
72161;SDS011;60047;51.644;5.842;2022-12-18T01:42:40;10.3;;;7.2;;
72161;SDS011;60047;51.644;5.842;2022-12-18T01:47:43;9.7;;;7.2;;
72161;SDS011;60047;51.644;5.842;2022-12-18T01:52:41;9.4;;;6.5;;
72161;SDS011;60047;51.644;5.842;2022-12-18T01:57:40;9.9;;;7.2;;
72161;SDS011;60047;51.644;5.842;2022-12-18T02:02:40;10.4;;;7.4;;
72161;SDS011;60047;51.644;5.842;2022-12-18T02:08:02;10.2;;;7.1;;
72161;SDS011;60047;51.644;5.842;2022-12-18T02:13:06;8.0;;;6.6;;
72161;SDS011;60047;51.644;5.842;2022-12-18T02:17:48;10.5;;;6.7;;
72161;SDS011;60047;51.644;5.842;2022-12-18T02:23:16;10.4;;;7.4;;
72161;SDS011;60047;51.644;5.842;2022-12-18T02:27:41;9.8;;;7.0;;
72161;SDS011;60047;51.644;5.842;2022-12-18T02:32:40;10.7;;;7.0;;
72161;SDS011;60047;51.644;5.842;2022-12-18T02:37:40;9.4;;;6.9;;
72161;SDS011;60047;51.644;5.842;2022-12-18T02:42:40;10.4;;;7.3;;
72161;SDS011;60047;51.644;5.842;2022-12-18T02:47:40;9.8;;;6.7;;
72161;SDS011;60047;51.644;5.842;2022-12-18T02:53:17;11.4;;;7.3;;
72161;SDS011;60047;51.644;5.842;2022-12-18T02:58:01;9.7;;;6.9;;
72161;SDS011;60047;51.644;5.842;2022-12-18T03:02:59;9.3;;;6.8;;
72161;SDS011;60047;51.644;5.842;2022-12-18T03:07:57;8.9;;;7.0;;
72161;SDS011;60047;51.644;5.842;2022-12-18T03:13:06;9.2;;;6.7;;
72161;SDS011;60047;51.644;5.842;2022-12-18T03:17:41;9.5;;;6.8;;
72161;SDS011;60047;51.644;5.842;2022-12-18T03:22:42;9.4;;;7.1;;
72161;SDS011;60047;51.644;5.842;2022-12-18T03:27:51;8.7;;;6.6;;
72161;SDS011;60047;51.644;5.842;2022-12-18T03:32:48;9.1;;;6.4;;
72161;SDS011;60047;51.644;5.842;2022-12-18T03:37:40;9.6;;;6.9;;
72161;SDS011;60047;51.644;5.842;2022-12-18T03:47:59;9.0;;;7.1;;
72161;SDS011;60047;51.644;5.842;2022-12-18T03:52:41;8.3;;;6.2;;
72161;SDS011;60047;51.644;5.842;2022-12-18T03:57:40;8.8;;;6.8;;
72161;SDS011;60047;51.644;5.842;2022-12-18T04:02:43;8.2;;;6.3;;
72161;SDS011;60047;51.644;5.842;2022-12-18T04:07:40;7.9;;;6.1;;
72161;SDS011;60047;51.644;5.842;2022-12-18T04:12:40;8.6;;;6.0;;
72161;SDS011;60047;51.644;5.842;2022-12-18T04:17:42;7.8;;;6.3;;
72161;SDS011;60047;51.644;5.842;2022-12-18T04:22:40;9.3;;;6.5;;
72161;SDS011;60047;51.644;5.842;2022-12-18T04:27:40;8.0;;;6.4;;
72161;SDS011;60047;51.644;5.842;2022-12-18T04:37:40;7.4;;;6.2;;
72161;SDS011;60047;51.644;5.842;2022-12-18T04:42:40;7.9;;;6.0;;
72161;SDS011;60047;51.644;5.842;2022-12-18T04:47:40;6.6;;;5.6;;
72161;SDS011;60047;51.644;5.842;2022-12-18T04:52:40;7.5;;;6.1;;
72161;SDS011;60047;51.644;5.842;2022-12-18T04:57:40;7.9;;;5.9;;
72161;SDS011;60047;51.644;5.842;2022-12-18T05:02:40;6.8;;;5.5;;
72161;SDS011;60047;51.644;5.842;2022-12-18T05:07:40;6.5;;;5.6;;
72161;SDS011;60047;51.644;5.842;2022-12-18T05:12:40;6.9;;;5.5;;
72161;SDS011;60047;51.644;5.842;2022-12-18T05:17:40;8.1;;;6.0;;
72161;SDS011;60047;51.644;5.842;2022-12-18T05:22:40;8.1;;;6.1;;
72161;SDS011;60047;51.644;5.842;2022-12-18T05:27:41;7.3;;;5.3;;
72161;SDS011;60047;51.644;5.842;2022-12-18T05:32:40;7.2;;;5.5;;
72161;SDS011;60047;51.644;5.842;2022-12-18T05:37:40;6.7;;;5.5;;
72161;SDS011;60047;51.644;5.842;2022-12-18T05:42:40;6.6;;;4.8;;
72161;SDS011;60047;51.644;5.842;2022-12-18T05:47:40;6.7;;;5.2;;
72161;SDS011;60047;51.644;5.842;2022-12-18T05:52:40;6.7;;;4.9;;
72161;SDS011;60047;51.644;5.842;2022-12-18T05:57:40;7.3;;;5.4;;
72161;SDS011;60047;51.644;5.842;2022-12-18T06:02:40;6.1;;;4.8;;
72161;SDS011;60047;51.644;5.842;2022-12-18T06:07:40;6.9;;;5.2;;
72161;SDS011;60047;51.644;5.842;2022-12-18T06:12:40;6.9;;;5.0;;
72161;SDS011;60047;51.644;5.842;2022-12-18T06:17:40;6.8;;;5.2;;
72161;SDS011;60047;51.644;5.842;2022-12-18T06:22:40;5.8;;;4.5;;
72161;SDS011;60047;51.644;5.842;2022-12-18T06:27:40;6.4;;;4.8;;
72161;SDS011;60047;51.644;5.842;2022-12-18T06:32:40;5.7;;;4.6;;
72161;SDS011;60047;51.644;5.842;2022-12-18T06:37:40;6.1;;;4.5;;
72161;SDS011;60047;51.644;5.842;2022-12-18T06:42:41;5.8;;;4.3;;
72161;SDS011;60047;51.644;5.842;2022-12-18T06:47:40;5.8;;;4.4;;
72161;SDS011;60047;51.644;5.842;2022-12-18T06:52:41;6.1;;;4.9;;
72161;SDS011;60047;51.644;5.842;2022-12-18T06:57:40;5.6;;;4.6;;
72161;SDS011;60047;51.644;5.842;2022-12-18T07:02:41;5.0;;;4.1;;
72161;SDS011;60047;51.644;5.842;2022-12-18T07:07:41;6.2;;;5.0;;
72161;SDS011;60047;51.644;5.842;2022-12-18T07:12:41;6.4;;;4.8;;
72161;SDS011;60047;51.644;5.842;2022-12-18T07:17:41;5.8;;;4.7;;
72161;SDS011;60047;51.644;5.842;2022-12-18T07:22:46;5.5;;;4.3;;
72161;SDS011;60047;51.644;5.842;2022-12-18T07:27:41;5.3;;;4.2;;
72161;SDS011;60047;51.644;5.842;2022-12-18T07:32:41;5.4;;;4.1;;
72161;SDS011;60047;51.644;5.842;2022-12-18T07:37:41;5.5;;;4.3;;
72161;SDS011;60047;51.644;5.842;2022-12-18T07:47:41;4.8;;;4.1;;
72161;SDS011;60047;51.644;5.842;2022-12-18T07:52:41;5.6;;;4.1;;
72161;SDS011;60047;51.644;5.842;2022-12-18T07:57:41;5.6;;;4.2;;
72161;SDS011;60047;51.644;5.842;2022-12-18T08:02:41;5.0;;;4.0;;
72161;SDS011;60047;51.644;5.842;2022-12-18T08:07:41;4.4;;;3.8;;
72161;SDS011;60047;51.644;5.842;2022-12-18T08:12:41;5.1;;;4.0;;
72161;SDS011;60047;51.644;5.842;2022-12-18T08:17:41;5.3;;;3.9;;
72161;SDS011;60047;51.644;5.842;2022-12-18T08:22:41;5.2;;;4.0;;
72161;SDS011;60047;51.644;5.842;2022-12-18T08:27:41;5.7;;;4.0;;
72161;SDS011;60047;51.644;5.842;2022-12-18T08:32:41;4.7;;;3.6;;
72161;SDS011;60047;51.644;5.842;2022-12-18T08:37:41;5.1;;;3.9;;
72161;SDS011;60047;51.644;5.842;2022-12-18T08:42:41;4.8;;;3.5;;
72161;SDS011;60047;51.644;5.842;2022-12-18T08:47:41;5.1;;;3.9;;
72161;SDS011;60047;51.644;5.842;2022-12-18T08:52:41;4.3;;;3.8;;
72161;SDS011;60047;51.644;5.842;2022-12-18T08:57:41;5.0;;;4.0;;
72161;SDS011;60047;51.644;5.842;2022-12-18T09:02:41;4.5;;;3.7;;
72161;SDS011;60047;51.644;5.842;2022-12-18T09:07:41;5.2;;;3.9;;
72161;SDS011;60047;51.644;5.842;2022-12-18T09:12:41;5.0;;;3.4;;
72161;SDS011;60047;51.644;5.842;2022-12-18T09:17:41;5.3;;;3.8;;
72161;SDS011;60047;51.644;5.842;2022-12-18T09:22:41;4.6;;;3.8;;
72161;SDS011;60047;51.644;5.842;2022-12-18T09:27:41;5.5;;;3.8;;
72161;SDS011;60047;51.644;5.842;2022-12-18T09:32:41;4.9;;;3.8;;
72161;SDS011;60047;51.644;5.842;2022-12-18T09:37:41;4.6;;;3.6;;
72161;SDS011;60047;51.644;5.842;2022-12-18T09:42:44;5.1;;;3.8;;
72161;SDS011;60047;51.644;5.842;2022-12-18T09:47:52;4.0;;;3.6;;
72161;SDS011;60047;51.644;5.842;2022-12-18T09:52:45;4.8;;;3.7;;
72161;SDS011;60047;51.644;5.842;2022-12-18T09:57:55;6.3;;;3.4;;
72161;SDS011;60047;51.644;5.842;2022-12-18T10:03:18;4.9;;;3.5;;
72161;SDS011;60047;51.644;5.842;2022-12-18T10:08:10;5.5;;;3.6;;
72161;SDS011;60047;51.644;5.842;2022-12-18T10:13:19;6.0;;;3.9;;
72161;SDS011;60047;51.644;5.842;2022-12-18T10:18:24;4.9;;;3.5;;
72161;SDS011;60047;51.644;5.842;2022-12-18T10:23:01;4.4;;;3.6;;
72161;SDS011;60047;51.644;5.842;2022-12-18T10:27:41;5.3;;;3.5;;
72161;SDS011;60047;51.644;5.842;2022-12-18T10:32:41;4.3;;;3.2;;
72161;SDS011;60047;51.644;5.842;2022-12-18T10:37:58;5.1;;;3.4;;
72161;SDS011;60047;51.644;5.842;2022-12-18T10:42:41;4.3;;;3.4;;
72161;SDS011;60047;51.644;5.842;2022-12-18T10:47:42;4.6;;;3.4;;
72161;SDS011;60047;51.644;5.842;2022-12-18T10:52:41;4.4;;;3.3;;
72161;SDS011;60047;51.644;5.842;2022-12-18T10:57:41;4.5;;;3.3;;
72161;SDS011;60047;51.644;5.842;2022-12-18T11:02:41;5.7;;;3.2;;
72161;SDS011;60047;51.644;5.842;2022-12-18T11:07:51;4.8;;;3.4;;
72161;SDS011;60047;51.644;5.842;2022-12-18T11:12:41;7.1;;;3.4;;
72161;SDS011;60047;51.644;5.842;2022-12-18T11:17:41;9.8;;;3.7;;
72161;SDS011;60047;51.644;5.842;2022-12-18T11:22:41;11.4;;;4.0;;
72161;SDS011;60047;51.644;5.842;2022-12-18T11:27:47;8.2;;;3.9;;
72161;SDS011;60047;51.644;5.842;2022-12-18T11:32:47;10.3;;;4.4;;
72161;SDS011;60047;51.644;5.842;2022-12-18T11:37:42;5.9;;;4.2;;
72161;SDS011;60047;51.644;5.842;2022-12-18T11:42:54;8.0;;;4.6;;
72161;SDS011;60047;51.644;5.842;2022-12-18T11:48:01;9.2;;;5.3;;
72161;SDS011;60047;51.644;5.842;2022-12-18T11:52:42;7.3;;;6.0;;
72161;SDS011;60047;51.644;5.842;2022-12-18T11:58:07;8.2;;;6.0;;
72161;SDS011;60047;51.644;5.842;2022-12-18T12:03:35;9.1;;;6.9;;
72161;SDS011;60047;51.644;5.842;2022-12-18T12:09:12;8.4;;;5.9;;
72161;SDS011;60047;51.644;5.842;2022-12-18T12:14:54;6.3;;;5.0;;
72161;SDS011;60047;51.644;5.842;2022-12-18T12:20:25;8.6;;;5.1;;
72161;SDS011;60047;51.644;5.842;2022-12-18T12:25:46;6.2;;;4.5;;
72161;SDS011;60047;51.644;5.842;2022-12-18T12:31:24;5.3;;;4.4;;
72161;SDS011;60047;51.644;5.842;2022-12-18T12:36:46;5.0;;;3.9;;
72161;SDS011;60047;51.644;5.842;2022-12-18T12:39:55;5.8;;;4.3;;
72161;SDS011;60047;51.644;5.842;2022-12-18T12:42:48;5.4;;;4.0;;
72161;SDS011;60047;51.644;5.842;2022-12-18T12:47:50;7.1;;;3.4;;
72161;SDS011;60047;51.644;5.842;2022-12-18T12:52:47;4.3;;;3.4;;
72161;SDS011;60047;51.644;5.842;2022-12-18T12:57:47;5.5;;;3.5;;
72161;SDS011;60047;51.644;5.842;2022-12-18T13:03:13;4.4;;;3.5;;
72161;SDS011;60047;51.644;5.842;2022-12-18T13:07:52;6.6;;;3.5;;
72161;SDS011;60047;51.644;5.842;2022-12-18T13:12:51;5.9;;;3.1;;
72161;SDS011;60047;51.644;5.842;2022-12-18T13:17:41;4.5;;;3.1;;
72161;SDS011;60047;51.644;5.842;2022-12-18T13:22:49;4.5;;;3.0;;
72161;SDS011;60047;51.644;5.842;2022-12-18T13:28:07;5.5;;;3.4;;
72161;SDS011;60047;51.644;5.842;2022-12-18T13:32:42;5.0;;;3.2;;
72161;SDS011;60047;51.644;5.842;2022-12-18T13:37:55;3.8;;;2.7;;
72161;SDS011;60047;51.644;5.842;2022-12-18T13:42:42;4.0;;;2.9;;
72161;SDS011;60047;51.644;5.842;2022-12-18T13:47:42;4.1;;;2.9;;
72161;SDS011;60047;51.644;5.842;2022-12-18T13:52:42;4.4;;;2.8;;
72161;SDS011;60047;51.644;5.842;2022-12-18T13:57:42;4.4;;;2.9;;
72161;SDS011;60047;51.644;5.842;2022-12-18T14:02:44;4.0;;;2.9;;
72161;SDS011;60047;51.644;5.842;2022-12-18T14:07:42;4.3;;;2.9;;
72161;SDS011;60047;51.644;5.842;2022-12-18T14:12:44;5.7;;;3.5;;
72161;SDS011;60047;51.644;5.842;2022-12-18T14:17:42;4.2;;;3.2;;
72161;SDS011;60047;51.644;5.842;2022-12-18T14:22:45;5.5;;;3.2;;
72161;SDS011;60047;51.644;5.842;2022-12-18T14:27:44;3.6;;;2.9;;
72161;SDS011;60047;51.644;5.842;2022-12-18T14:32:42;4.2;;;3.1;;
72161;SDS011;60047;51.644;5.842;2022-12-18T14:37:42;4.8;;;3.2;;
72161;SDS011;60047;51.644;5.842;2022-12-18T14:42:42;3.9;;;3.2;;
72161;SDS011;60047;51.644;5.842;2022-12-18T14:47:42;4.5;;;3.1;;
72161;SDS011;60047;51.644;5.842;2022-12-18T14:52:42;4.4;;;3.2;;
72161;SDS011;60047;51.644;5.842;2022-12-18T14:57:42;4.7;;;3.3;;
72161;SDS011;60047;51.644;5.842;2022-12-18T15:02:42;5.7;;;3.2;;
72161;SDS011;60047;51.644;5.842;2022-12-18T15:07:48;4.3;;;3.4;;
72161;SDS011;60047;51.644;5.842;2022-12-18T15:12:46;4.6;;;3.3;;
72161;SDS011;60047;51.644;5.842;2022-12-18T15:17:42;5.1;;;3.5;;
72161;SDS011;60047;51.644;5.842;2022-12-18T15:22:42;5.4;;;3.3;;
72161;SDS011;60047;51.644;5.842;2022-12-18T15:27:44;4.8;;;3.2;;
72161;SDS011;60047;51.644;5.842;2022-12-18T15:32:42;4.8;;;3.5;;
72161;SDS011;60047;51.644;5.842;2022-12-18T15:37:42;4.8;;;3.1;;
72161;SDS011;60047;51.644;5.842;2022-12-18T15:42:42;4.4;;;3.1;;
72161;SDS011;60047;51.644;5.842;2022-12-18T15:47:42;4.9;;;3.1;;
72161;SDS011;60047;51.644;5.842;2022-12-18T15:52:49;4.3;;;3.0;;
72161;SDS011;60047;51.644;5.842;2022-12-18T15:57:42;5.2;;;3.2;;
72161;SDS011;60047;51.644;5.842;2022-12-18T16:02:42;4.5;;;3.2;;
72161;SDS011;60047;51.644;5.842;2022-12-18T16:07:42;5.3;;;3.3;;
72161;SDS011;60047;51.644;5.842;2022-12-18T16:12:42;5.5;;;3.4;;
72161;SDS011;60047;51.644;5.842;2022-12-18T16:17:43;6.4;;;3.6;;
72161;SDS011;60047;51.644;5.842;2022-12-18T16:22:42;4.2;;;3.1;;
72161;SDS011;60047;51.644;5.842;2022-12-18T16:27:42;4.1;;;3.2;;
72161;SDS011;60047;51.644;5.842;2022-12-18T16:32:42;4.8;;;3.2;;
72161;SDS011;60047;51.644;5.842;2022-12-18T16:37:42;5.1;;;3.4;;
72161;SDS011;60047;51.644;5.842;2022-12-18T16:42:44;4.9;;;3.3;;
72161;SDS011;60047;51.644;5.842;2022-12-18T16:47:42;5.9;;;3.3;;
72161;SDS011;60047;51.644;5.842;2022-12-18T16:52:42;4.5;;;3.1;;
72161;SDS011;60047;51.644;5.842;2022-12-18T16:57:42;5.7;;;3.7;;
72161;SDS011;60047;51.644;5.842;2022-12-18T17:02:42;4.0;;;3.5;;
72161;SDS011;60047;51.644;5.842;2022-12-18T17:07:42;5.2;;;3.4;;
72161;SDS011;60047;51.644;5.842;2022-12-18T17:12:42;4.1;;;3.3;;
72161;SDS011;60047;51.644;5.842;2022-12-18T17:17:42;5.3;;;3.7;;
72161;SDS011;60047;51.644;5.842;2022-12-18T17:22:42;8.0;;;3.8;;
72161;SDS011;60047;51.644;5.842;2022-12-18T17:27:42;7.9;;;4.3;;
72161;SDS011;60047;51.644;5.842;2022-12-18T17:32:42;6.0;;;4.0;;
72161;SDS011;60047;51.644;5.842;2022-12-18T17:37:42;7.9;;;4.1;;
72161;SDS011;60047;51.644;5.842;2022-12-18T17:42:42;6.9;;;4.1;;
72161;SDS011;60047;51.644;5.842;2022-12-18T17:47:42;7.2;;;4.0;;
72161;SDS011;60047;51.644;5.842;2022-12-18T17:52:42;7.9;;;4.0;;
72161;SDS011;60047;51.644;5.842;2022-12-18T17:57:42;7.5;;;4.2;;
72161;SDS011;60047;51.644;5.842;2022-12-18T18:02:42;8.4;;;4.5;;
72161;SDS011;60047;51.644;5.842;2022-12-18T18:07:42;7.9;;;4.1;;
72161;SDS011;60047;51.644;5.842;2022-12-18T18:12:42;7.9;;;4.4;;
72161;SDS011;60047;51.644;5.842;2022-12-18T18:17:43;8.5;;;4.6;;
72161;SDS011;60047;51.644;5.842;2022-12-18T18:22:42;8.5;;;4.3;;
72161;SDS011;60047;51.644;5.842;2022-12-18T18:27:42;7.3;;;4.3;;
72161;SDS011;60047;51.644;5.842;2022-12-18T18:32:42;11.6;;;5.5;;
72161;SDS011;60047;51.644;5.842;2022-12-18T18:37:42;6.9;;;4.1;;
72161;SDS011;60047;51.644;5.842;2022-12-18T18:42:42;9.6;;;4.8;;
72161;SDS011;60047;51.644;5.842;2022-12-18T18:47:43;8.9;;;4.7;;
72161;SDS011;60047;51.644;5.842;2022-12-18T18:52:42;9.9;;;4.9;;
72161;SDS011;60047;51.644;5.842;2022-12-18T18:57:42;7.3;;;4.4;;
72161;SDS011;60047;51.644;5.842;2022-12-18T19:02:42;9.1;;;4.8;;
72161;SDS011;60047;51.644;5.842;2022-12-18T19:07:42;7.7;;;4.5;;
72161;SDS011;60047;51.644;5.842;2022-12-18T19:12:42;9.2;;;4.6;;
72161;SDS011;60047;51.644;5.842;2022-12-18T19:17:43;9.5;;;4.9;;
72161;SDS011;60047;51.644;5.842;2022-12-18T19:22:42;8.6;;;4.8;;
72161;SDS011;60047;51.644;5.842;2022-12-18T19:27:42;8.8;;;4.9;;
72161;SDS011;60047;51.644;5.842;2022-12-18T19:32:42;8.2;;;4.6;;
72161;SDS011;60047;51.644;5.842;2022-12-18T19:37:43;10.1;;;5.2;;
72161;SDS011;60047;51.644;5.842;2022-12-18T19:42:43;8.6;;;4.5;;
72161;SDS011;60047;51.644;5.842;2022-12-18T19:47:42;7.4;;;4.8;;
72161;SDS011;60047;51.644;5.842;2022-12-18T19:52:43;8.7;;;4.8;;
72161;SDS011;60047;51.644;5.842;2022-12-18T19:57:43;8.5;;;4.4;;
72161;SDS011;60047;51.644;5.842;2022-12-18T20:02:43;8.0;;;4.9;;
72161;SDS011;60047;51.644;5.842;2022-12-18T20:07:43;8.1;;;4.8;;
72161;SDS011;60047;51.644;5.842;2022-12-18T20:12:43;6.9;;;4.4;;
72161;SDS011;60047;51.644;5.842;2022-12-18T20:17:43;7.6;;;4.5;;
72161;SDS011;60047;51.644;5.842;2022-12-18T20:22:43;8.0;;;4.8;;
72161;SDS011;60047;51.644;5.842;2022-12-18T20:27:43;9.1;;;4.7;;
72161;SDS011;60047;51.644;5.842;2022-12-18T20:32:43;8.4;;;4.4;;
72161;SDS011;60047;51.644;5.842;2022-12-18T20:37:43;6.1;;;4.5;;
72161;SDS011;60047;51.644;5.842;2022-12-18T20:42:43;6.8;;;4.3;;
72161;SDS011;60047;51.644;5.842;2022-12-18T20:47:43;8.6;;;4.8;;
72161;SDS011;60047;51.644;5.842;2022-12-18T20:52:43;7.4;;;4.5;;
72161;SDS011;60047;51.644;5.842;2022-12-18T20:57:43;6.3;;;4.3;;
72161;SDS011;60047;51.644;5.842;2022-12-18T21:02:43;7.0;;;4.6;;
72161;SDS011;60047;51.644;5.842;2022-12-18T21:07:43;7.9;;;4.3;;
72161;SDS011;60047;51.644;5.842;2022-12-18T21:12:43;8.7;;;4.6;;
72161;SDS011;60047;51.644;5.842;2022-12-18T21:17:43;8.0;;;4.6;;
72161;SDS011;60047;51.644;5.842;2022-12-18T21:22:43;6.5;;;4.3;;
72161;SDS011;60047;51.644;5.842;2022-12-18T21:27:43;6.3;;;4.6;;
72161;SDS011;60047;51.644;5.842;2022-12-18T21:32:43;7.3;;;4.2;;
72161;SDS011;60047;51.644;5.842;2022-12-18T21:37:43;6.2;;;4.4;;
72161;SDS011;60047;51.644;5.842;2022-12-18T21:42:43;7.2;;;4.4;;
72161;SDS011;60047;51.644;5.842;2022-12-18T21:47:43;6.5;;;4.3;;
72161;SDS011;60047;51.644;5.842;2022-12-18T21:52:43;7.8;;;4.2;;
72161;SDS011;60047;51.644;5.842;2022-12-18T21:57:43;6.8;;;4.4;;
72161;SDS011;60047;51.644;5.842;2022-12-18T22:02:43;6.5;;;4.6;;
72161;SDS011;60047;51.644;5.842;2022-12-18T22:07:43;6.1;;;4.3;;
72161;SDS011;60047;51.644;5.842;2022-12-18T22:12:43;6.7;;;4.3;;
72161;SDS011;60047;51.644;5.842;2022-12-18T22:17:43;5.7;;;4.5;;
72161;SDS011;60047;51.644;5.842;2022-12-18T22:22:43;7.1;;;4.2;;
72161;SDS011;60047;51.644;5.842;2022-12-18T22:27:43;6.2;;;4.6;;
72161;SDS011;60047;51.644;5.842;2022-12-18T22:32:43;6.1;;;4.1;;
72161;SDS011;60047;51.644;5.842;2022-12-18T22:37:43;6.5;;;4.3;;
72161;SDS011;60047;51.644;5.842;2022-12-18T22:42:43;5.6;;;3.9;;
72161;SDS011;60047;51.644;5.842;2022-12-18T22:47:43;5.6;;;4.2;;
72161;SDS011;60047;51.644;5.842;2022-12-18T22:52:43;5.7;;;4.2;;
72161;SDS011;60047;51.644;5.842;2022-12-18T22:57:43;7.0;;;4.9;;
72161;SDS011;60047;51.644;5.842;2022-12-18T23:02:43;8.0;;;4.7;;
72161;SDS011;60047;51.644;5.842;2022-12-18T23:07:43;5.7;;;4.2;;
72161;SDS011;60047;51.644;5.842;2022-12-18T23:12:43;5.6;;;3.9;;
72161;SDS011;60047;51.644;5.842;2022-12-18T23:17:43;5.9;;;4.0;;
72161;SDS011;60047;51.644;5.842;2022-12-18T23:22:43;5.9;;;4.4;;
72161;SDS011;60047;51.644;5.842;2022-12-18T23:27:43;6.1;;;4.2;;
72161;SDS011;60047;51.644;5.842;2022-12-18T23:32:43;5.9;;;4.0;;
72161;SDS011;60047;51.644;5.842;2022-12-18T23:37:43;5.4;;;3.9;;
72161;SDS011;60047;51.644;5.842;2022-12-18T23:42:43;5.6;;;4.3;;
72161;SDS011;60047;51.644;5.842;2022-12-18T23:47:43;5.5;;;4.2;;
72161;SDS011;60047;51.644;5.842;2022-12-18T23:52:43;5.1;;;4.2;;
72161;SDS011;60047;51.644;5.842;2022-12-18T23:57:43;6.8;;;4.2;;
